createdAt,value
2022-09-02T00:01:14.767Z,0.80
2022-09-02T00:03:42.638Z,1.30
2022-09-02T00:06:10.485Z,0.80
2022-09-02T00:08:38.567Z,1.17
2022-09-02T00:11:06.628Z,1.30
2022-09-02T00:13:34.960Z,1.20
2022-09-02T00:16:04.740Z,1.95
2022-09-02T00:18:32.617Z,1.42
2022-09-02T00:21:00.362Z,1.27
2022-09-02T00:23:28.103Z,2.33
2022-09-02T00:25:55.804Z,1.02
2022-09-02T00:28:24.213Z,1.73
2022-09-02T00:30:51.947Z,1.05
2022-09-02T00:33:21.173Z,1.42
2022-09-02T00:35:49.140Z,1.52
2022-09-02T00:38:16.906Z,0.95
2022-09-02T00:40:45.612Z,2.25
2022-09-02T00:43:13.801Z,0.73
2022-09-02T00:45:41.587Z,0.88
2022-09-02T00:48:09.378Z,2.22
2022-09-02T00:50:38.423Z,1.08
2022-09-02T00:53:11.030Z,0.90
2022-09-02T00:55:41.752Z,1.52
2022-09-02T00:58:11.061Z,1.45
2022-09-02T01:00:42.461Z,0.95
2022-09-02T01:03:11.865Z,0.63
2022-09-02T01:05:44.788Z,1.48
2022-09-02T01:08:12.748Z,1.40
2022-09-02T01:10:40.925Z,2.15
2022-09-02T01:13:09.941Z,1.25
2022-09-02T01:15:39.870Z,0.98
2022-09-02T01:18:08.508Z,2.22
2022-09-02T01:20:36.486Z,2.00
2022-09-02T01:23:05.588Z,0.90
2022-09-02T01:25:34.354Z,1.13
2022-09-02T01:28:02.356Z,1.85
2022-09-02T01:30:30.382Z,1.02
2022-09-02T01:32:58.207Z,0.60
2022-09-02T01:35:26.216Z,0.80
2022-09-02T01:37:56.145Z,1.30
2022-09-02T01:40:25.860Z,1.17
2022-09-02T01:42:55.814Z,0.90
2022-09-02T01:45:24.375Z,1.17
2022-09-02T01:47:52.140Z,0.70
2022-09-02T01:50:20.012Z,0.95
2022-09-02T01:52:47.724Z,0.85
2022-09-02T01:55:15.569Z,0.68
2022-09-02T01:57:44.823Z,1.70
2022-09-02T02:00:15.177Z,0.82
2022-09-02T02:02:43.406Z,1.08
2022-09-02T02:05:14.015Z,0.82
2022-09-02T02:07:42.337Z,0.80
2022-09-02T02:10:11.494Z,0.75
2022-09-02T02:12:39.240Z,1.20
2022-09-02T02:15:11.464Z,1.10
2022-09-02T02:17:40.078Z,0.90
2022-09-02T02:20:11.270Z,1.60
2022-09-02T02:22:39.096Z,0.50
2022-09-02T02:25:08.034Z,1.30
2022-09-02T02:27:35.905Z,0.70
2022-09-02T02:30:09.950Z,0.80
2022-09-02T02:32:38.463Z,1.00
2022-09-02T02:35:07.255Z,0.80
2022-09-02T02:37:36.349Z,1.05
2022-09-02T02:40:04.996Z,1.00
2022-09-02T02:42:32.884Z,0.90
2022-09-02T02:45:00.618Z,1.00
2022-09-02T02:47:29.719Z,0.90
2022-09-02T02:49:57.437Z,1.27
2022-09-02T02:52:25.196Z,1.10
2022-09-02T02:54:53.992Z,1.02
2022-09-02T02:57:21.718Z,0.52
2022-09-02T02:59:49.449Z,0.70
2022-09-02T03:02:18.296Z,0.80
2022-09-02T03:04:47.503Z,0.70
2022-09-02T03:07:28.095Z,0.80
2022-09-02T03:09:56.022Z,0.75
2022-09-02T03:12:24.183Z,0.80
2022-09-02T03:14:52.596Z,1.08
2022-09-02T03:17:21.046Z,0.75
2022-09-02T03:19:50.853Z,0.68
2022-09-02T03:22:18.623Z,0.85
2022-09-02T03:24:46.690Z,1.08
2022-09-02T03:27:14.732Z,0.75
2022-09-02T03:29:42.539Z,0.70
2022-09-02T03:32:11.206Z,0.82
2022-09-02T03:34:43.423Z,0.60
2022-09-02T03:37:14.264Z,0.90
2022-09-02T03:39:44.997Z,1.60
2022-09-02T03:42:19.379Z,0.95
2022-09-02T03:44:54.229Z,0.77
2022-09-02T03:47:24.554Z,0.50
2022-09-02T03:49:54.202Z,0.75
2022-09-02T03:52:23.298Z,0.75
2022-09-02T03:54:51.452Z,0.75
2022-09-02T03:57:20.522Z,0.85
2022-09-02T03:59:49.410Z,0.63
2022-09-02T04:02:18.154Z,0.75
2022-09-02T04:04:45.993Z,1.02
2022-09-02T04:07:13.741Z,0.85
2022-09-02T04:09:46.569Z,0.70
2022-09-02T04:12:14.689Z,0.73
2022-09-02T04:14:43.003Z,0.80
2022-09-02T04:17:11.716Z,1.33
2022-09-02T04:19:40.318Z,0.70
2022-09-02T04:22:08.180Z,0.70
2022-09-02T04:24:37.173Z,1.05
2022-09-02T04:27:09.943Z,1.17
2022-09-02T04:29:38.341Z,1.13
2022-09-02T04:32:16.400Z,0.82
2022-09-02T04:34:44.984Z,0.68
2022-09-02T04:37:14.398Z,0.70
2022-09-02T04:39:42.473Z,0.60
2022-09-02T04:42:12.724Z,0.82
2022-09-02T04:44:41.572Z,0.85
2022-09-02T04:47:09.636Z,1.17
2022-09-02T04:49:37.955Z,0.80
2022-09-02T04:52:05.747Z,0.70
2022-09-02T04:54:34.859Z,1.98
2022-09-02T04:57:03.139Z,0.80
2022-09-02T04:59:32.246Z,1.02
2022-09-02T05:02:05.568Z,1.73
2022-09-02T05:04:33.432Z,0.73
2022-09-02T05:07:02.402Z,1.02
2022-09-02T05:09:32.934Z,1.15
2022-09-02T05:12:04.574Z,1.50
2022-09-02T05:14:51.553Z,1.00
2022-09-02T05:17:21.515Z,1.23
2022-09-02T05:19:50.056Z,1.13
2022-09-02T05:22:19.682Z,0.85
2022-09-02T05:24:47.655Z,1.17
2022-09-02T05:27:16.798Z,0.90
2022-09-02T05:29:46.577Z,1.15
2022-09-02T05:32:18.216Z,1.08
2022-09-02T05:34:48.847Z,1.00
2022-09-02T05:37:17.319Z,1.02
2022-09-02T05:39:45.077Z,0.57
2022-09-02T05:42:12.780Z,0.90
2022-09-02T05:44:44.484Z,0.88
2022-09-02T05:47:14.217Z,1.25
2022-09-02T05:49:44.072Z,0.73
2022-09-02T05:52:14.968Z,1.02
2022-09-02T05:54:49.839Z,1.02
2022-09-02T05:57:21.512Z,0.73
2022-09-02T05:59:57.295Z,1.02
2022-09-02T06:02:41.438Z,2.17
2022-09-02T06:05:12.958Z,0.98
2022-09-02T06:07:46.502Z,0.88
2022-09-02T06:10:14.269Z,0.70
2022-09-02T06:12:43.115Z,0.85
2022-09-02T06:15:12.344Z,0.85
2022-09-02T06:17:41.575Z,1.25
2022-09-02T06:20:12.555Z,1.10
2022-09-02T06:22:42.872Z,0.70
2022-09-02T06:25:10.808Z,1.88
2022-09-02T06:27:39.188Z,0.70
2022-09-02T06:30:08.472Z,1.58
2022-09-02T06:32:36.289Z,1.00
2022-09-02T06:35:10.663Z,1.00
2022-09-02T06:37:41.315Z,1.13
2022-09-02T06:40:12.021Z,1.05
2022-09-02T06:42:40.879Z,1.38
2022-09-02T06:45:16.012Z,0.95
2022-09-02T06:47:45.943Z,1.20
2022-09-02T06:50:15.313Z,2.17
2022-09-02T06:52:44.512Z,1.00
2022-09-02T06:55:14.460Z,0.88
2022-09-02T06:57:42.502Z,1.33
2022-09-02T07:00:14.098Z,0.88
2022-09-02T07:02:43.580Z,1.10
2022-09-02T07:05:10.974Z,1.02
2022-09-02T07:07:41.052Z,1.23
2022-09-02T07:10:14.719Z,1.05
2022-09-02T07:12:46.449Z,0.93
2022-09-02T07:15:17.449Z,1.65
2022-09-02T07:17:45.183Z,1.13
2022-09-02T07:20:23.386Z,0.80
2022-09-02T07:22:56.385Z,0.70
2022-09-02T07:25:27.372Z,2.28
2022-09-02T07:27:56.248Z,1.33
2022-09-02T07:30:24.994Z,2.05
2022-09-02T07:33:02.879Z,0.80
2022-09-02T07:35:31.076Z,1.35
2022-09-02T07:37:59.727Z,1.00
2022-09-02T07:40:30.004Z,0.80
2022-09-02T07:42:58.027Z,0.98
2022-09-02T07:45:26.249Z,0.80
2022-09-02T07:47:54.995Z,1.00
2022-09-02T07:50:25.079Z,1.05
2022-09-02T07:52:58.345Z,0.82
2022-09-02T07:55:31.001Z,1.10
2022-09-02T07:57:58.992Z,0.90
2022-09-02T08:00:27.870Z,0.90
2022-09-02T08:03:00.046Z,0.70
2022-09-02T08:05:32.752Z,0.88
2022-09-02T08:08:01.130Z,1.00
2022-09-02T08:10:30.399Z,1.50
2022-09-02T08:13:00.200Z,1.10
2022-09-02T08:15:28.872Z,0.65
2022-09-02T08:17:56.850Z,1.10
2022-09-02T08:20:24.549Z,0.93
2022-09-02T08:23:01.006Z,0.80
2022-09-02T08:25:41.559Z,1.48
2022-09-02T08:28:09.345Z,0.82
2022-09-02T08:30:37.048Z,0.60
2022-09-02T08:33:04.814Z,1.10
2022-09-02T08:35:32.572Z,0.90
2022-09-02T08:38:02.329Z,1.10
2022-09-02T08:40:34.161Z,0.70
2022-09-02T08:43:03.828Z,0.80
2022-09-02T08:45:34.278Z,0.98
2022-09-02T08:48:05.630Z,1.00
2022-09-02T08:50:33.333Z,0.75
2022-09-02T08:53:04.330Z,1.00
2022-09-02T08:55:36.593Z,0.50
2022-09-02T09:00:37.789Z,0.60
2022-09-02T09:03:09.578Z,0.70
2022-09-02T09:05:41.744Z,0.85
2022-09-02T09:08:14.842Z,0.77
2022-09-02T09:10:47.999Z,0.90
2022-09-02T09:13:42.208Z,0.65
2022-09-02T09:16:14.492Z,0.75
2022-09-02T09:18:44.412Z,0.68
2022-09-02T09:21:12.166Z,0.80
2022-09-02T09:23:40.388Z,0.95
2022-09-02T09:26:09.329Z,1.23
2022-09-02T09:28:44.820Z,2.25
2022-09-02T09:31:14.046Z,0.80
2022-09-02T09:33:42.186Z,0.80
2022-09-02T09:36:09.956Z,0.68
2022-09-02T09:38:41.441Z,1.13
2022-09-02T09:41:12.268Z,0.80
2022-09-02T09:43:40.003Z,0.98
2022-09-02T09:46:22.104Z,0.70
2022-09-02T09:48:51.513Z,1.13
2022-09-02T09:51:19.272Z,0.80
2022-09-02T09:53:47.345Z,1.42
2022-09-02T09:56:27.151Z,0.88
2022-09-02T09:58:54.898Z,0.95
2022-09-02T10:01:25.173Z,0.90
2022-09-02T10:03:54.438Z,1.40
2022-09-02T10:06:23.550Z,1.45
2022-09-02T10:08:52.892Z,0.60
2022-09-02T10:11:25.737Z,0.73
2022-09-02T10:13:55.052Z,0.50
2022-09-02T10:16:42.316Z,1.08
2022-09-02T10:19:14.459Z,0.80
2022-09-02T10:21:53.607Z,0.90
2022-09-02T10:24:31.777Z,1.20
2022-09-02T10:26:59.792Z,0.80
2022-09-02T10:29:48.338Z,0.75
2022-09-02T10:32:29.184Z,0.80
2022-09-02T10:35:03.482Z,1.02
2022-09-02T10:37:35.449Z,0.90
2022-09-02T10:40:10.402Z,0.90
2022-09-02T10:42:44.687Z,1.17
2022-09-02T10:45:17.770Z,1.13
2022-09-02T10:47:49.722Z,0.80
2022-09-02T10:50:21.723Z,1.85
2022-09-02T10:53:00.907Z,0.85
2022-09-02T10:55:37.841Z,0.75
2022-09-02T10:58:07.363Z,0.70
2022-09-02T11:00:36.305Z,1.00
2022-09-02T11:03:08.741Z,0.70
2022-09-02T11:05:42.540Z,1.40
2022-09-02T11:08:11.947Z,0.70
2022-09-02T11:10:41.115Z,1.20
2022-09-02T11:13:10.537Z,0.82
2022-09-02T11:15:45.269Z,0.85
2022-09-02T11:18:19.356Z,1.08
2022-09-02T11:20:50.726Z,0.95
2022-09-02T11:23:21.383Z,0.75
2022-09-02T11:25:53.338Z,0.63
2022-09-02T11:28:26.720Z,1.27
2022-09-02T11:30:56.875Z,1.05
2022-09-02T11:33:28.055Z,1.25
2022-09-02T11:35:55.881Z,2.22
2022-09-02T11:38:34.300Z,2.33
2022-09-02T11:44:05.190Z,10.65
2022-09-02T11:46:39.789Z,9.52
2022-09-02T11:49:53.270Z,8.00
2022-09-02T11:52:25.951Z,11.18
2022-09-02T11:55:02.707Z,5.05
2022-09-02T11:57:30.978Z,11.60
2022-09-02T12:00:29.111Z,8.20
2022-09-02T12:03:11.531Z,11.50
2022-09-02T12:05:49.818Z,7.35
2022-09-02T12:09:00.610Z,25.02
2022-09-02T12:11:38.768Z,17.75
2022-09-02T12:14:08.112Z,16.27
2022-09-02T12:16:37.857Z,8.35
2022-09-02T12:19:19.303Z,15.80
2022-09-02T12:22:23.409Z,66.80
2022-09-02T12:24:53.914Z,27.00
2022-09-02T12:27:26.220Z,23.88
2022-09-02T12:29:55.566Z,115.85
2022-09-02T12:32:59.644Z,28.50
2022-09-02T12:35:37.168Z,35.72
2022-09-02T12:38:22.905Z,18.08
2022-09-02T12:40:55.758Z,19.33
2022-09-02T12:43:26.684Z,20.52
2022-09-02T12:45:55.106Z,16.52
2022-09-02T12:48:36.396Z,20.30
2022-09-02T12:51:06.421Z,16.45
2022-09-02T12:53:36.720Z,16.88
2022-09-02T12:56:09.455Z,20.80
2022-09-02T12:58:41.286Z,20.63
2022-09-02T13:01:14.581Z,20.00
2022-09-02T13:03:53.100Z,18.75
2022-09-02T13:06:25.602Z,18.77
2022-09-02T13:09:28.029Z,21.13
2022-09-02T13:12:23.626Z,26.67
2022-09-02T13:14:55.548Z,20.25
2022-09-02T13:17:36.994Z,18.38
2022-09-02T13:20:38.496Z,23.25
2022-09-02T13:23:20.245Z,16.88
2022-09-02T13:26:27.400Z,21.20
2022-09-02T13:29:37.135Z,20.42
2022-09-02T13:32:13.325Z,23.42
2022-09-02T13:34:42.359Z,21.17
2022-09-02T13:37:28.616Z,14.25
2022-09-02T13:39:56.509Z,27.00
2022-09-02T13:42:25.274Z,14.18
2022-09-02T13:45:10.948Z,19.85
2022-09-02T13:47:38.788Z,19.05
2022-09-02T13:50:07.663Z,18.23
2022-09-02T13:53:34.609Z,21.98
2022-09-02T13:55:23.508Z,15.10
2022-09-02T13:57:55.699Z,22.35
2022-09-02T14:00:32.046Z,26.15
2022-09-02T14:03:02.013Z,27.92
2022-09-02T14:05:29.885Z,14.80
2022-09-02T14:07:59.676Z,22.45
2022-09-02T14:10:28.233Z,25.10
2022-09-02T14:12:56.406Z,19.50
2022-09-02T14:15:30.025Z,16.00
2022-09-02T14:18:18.451Z,25.10
2022-09-02T14:20:57.620Z,21.17
2022-09-02T14:23:25.370Z,25.75
2022-09-02T14:25:54.497Z,21.40
2022-09-02T14:28:23.994Z,19.60
2022-09-02T14:31:01.249Z,31.40
2022-09-02T14:33:41.157Z,25.25
2022-09-02T14:36:10.046Z,21.10
2022-09-02T14:38:38.897Z,27.20
2022-09-02T14:41:11.709Z,24.33
2022-09-02T14:43:47.295Z,23.00
2022-09-02T14:46:27.793Z,29.77
2022-09-02T14:49:01.042Z,30.92
2022-09-02T14:51:32.796Z,34.78
2022-09-02T14:54:00.624Z,33.50
2022-09-02T14:56:48.570Z,44.97
2022-09-02T14:59:16.316Z,49.90
2022-09-02T15:01:47.521Z,38.70
2022-09-02T15:04:15.556Z,52.88
2022-09-02T15:06:43.543Z,42.83
2022-09-02T15:09:11.530Z,42.30
2022-09-02T15:11:39.575Z,77.45
2022-09-02T15:14:07.295Z,51.22
2022-09-02T15:16:35.496Z,70.45
2022-09-02T15:19:05.069Z,48.90
2022-09-02T15:21:32.904Z,41.10
2022-09-02T15:24:00.622Z,36.03
2022-09-02T15:26:28.318Z,31.17
2022-09-02T15:28:56.053Z,39.75
2022-09-02T15:31:23.963Z,33.13
2022-09-02T15:33:52.572Z,38.17
2022-09-02T15:36:26.249Z,28.77
2022-09-02T15:38:54.137Z,25.80
2022-09-02T15:41:24.205Z,35.38
2022-09-02T15:43:55.527Z,35.45
2022-09-02T15:46:25.932Z,44.00
2022-09-02T15:48:53.898Z,35.92
2022-09-02T15:51:24.399Z,37.72
2022-09-02T15:53:55.968Z,28.02
2022-09-02T15:56:24.812Z,33.03
2022-09-02T15:58:58.334Z,29.77
2022-09-02T16:01:26.994Z,27.52
2022-09-02T16:03:55.302Z,38.15
2022-09-02T16:06:24.467Z,35.53
2022-09-02T16:08:52.404Z,45.63
2022-09-02T16:11:20.599Z,30.00
2022-09-02T16:13:48.378Z,33.75
2022-09-02T16:16:16.426Z,22.55
2022-09-02T16:18:44.382Z,34.88
2022-09-02T16:21:13.052Z,111.90
2022-09-02T16:23:42.453Z,105.80
2022-09-02T16:26:12.179Z,398.63
2022-09-02T16:28:40.589Z,238.68
2022-09-02T16:31:09.187Z,144.65
2022-09-02T16:33:36.956Z,101.78
2022-09-02T16:36:05.103Z,81.68
2022-09-02T16:38:34.506Z,87.80
2022-09-02T16:41:03.887Z,91.75
2022-09-02T16:43:32.140Z,72.80
2022-09-02T16:46:02.819Z,84.97
2022-09-02T16:48:32.723Z,82.68
2022-09-02T16:51:03.177Z,75.55
2022-09-02T16:53:31.293Z,60.80
2022-09-02T16:55:58.988Z,55.85
2022-09-02T16:58:29.509Z,50.40
2022-09-02T17:00:57.498Z,46.10
2022-09-02T17:03:25.302Z,56.53
2022-09-02T17:05:52.995Z,42.97
2022-09-02T17:08:20.721Z,54.42
2022-09-02T17:10:48.411Z,48.90
2022-09-02T17:13:16.165Z,52.92
2022-09-02T17:15:45.873Z,42.00
2022-09-02T17:18:13.583Z,50.58
2022-09-02T17:20:41.279Z,43.30
2022-09-02T17:23:09.011Z,42.47
2022-09-02T17:25:36.757Z,38.35
2022-09-02T17:28:04.451Z,42.70
2022-09-02T17:30:32.274Z,37.40
2022-09-02T17:33:01.615Z,46.75
2022-09-02T17:35:29.378Z,29.13
2022-09-02T17:37:57.794Z,38.70
2022-09-02T17:40:43.401Z,38.28
2022-09-02T17:43:11.523Z,29.98
2022-09-02T17:45:39.301Z,38.42
2022-09-02T17:48:34.356Z,30.60
2022-09-02T17:50:56.347Z,33.10
2022-09-02T17:53:26.601Z,26.83
2022-09-02T17:55:56.583Z,28.17
2022-09-02T17:58:25.298Z,29.83
2022-09-02T18:00:53.226Z,28.98
2022-09-02T18:03:31.956Z,25.90
2022-09-02T18:06:06.094Z,26.98
2022-09-02T18:08:36.630Z,27.90
2022-09-02T18:11:06.533Z,28.90
2022-09-02T18:13:40.030Z,28.95
2022-09-02T18:16:20.852Z,24.73
2022-09-02T18:18:56.237Z,20.20
2022-09-02T18:21:26.558Z,29.40
2022-09-02T18:23:57.424Z,22.02
2022-09-02T18:26:30.199Z,19.55
2022-09-02T18:29:03.338Z,28.85
2022-09-02T18:31:36.215Z,23.88
2022-09-02T18:34:13.910Z,19.20
2022-09-02T18:36:44.829Z,25.92
2022-09-02T18:39:26.713Z,16.58
2022-09-02T18:42:03.154Z,23.70
2022-09-02T18:44:36.326Z,15.40
2022-09-02T18:47:06.758Z,20.80
2022-09-02T18:49:35.968Z,18.30
2022-09-02T18:52:06.332Z,15.75
2022-09-02T18:54:38.404Z,18.40
2022-09-02T18:57:08.000Z,16.02
2022-09-02T18:59:40.682Z,19.77
2022-09-02T19:02:16.935Z,15.77
2022-09-02T19:04:46.034Z,16.38
2022-09-02T19:07:31.326Z,21.02
2022-09-02T19:10:00.948Z,18.60
2022-09-02T19:12:31.853Z,15.27
2022-09-02T19:14:59.822Z,14.18
2022-09-02T19:17:27.636Z,16.35
2022-09-02T19:19:57.197Z,14.60
2022-09-02T19:22:26.995Z,13.52
2022-09-02T19:24:58.462Z,12.25
2022-09-02T19:27:29.101Z,11.60
2022-09-02T19:30:01.478Z,13.02
2022-09-02T19:32:30.721Z,14.25
2022-09-02T19:35:00.438Z,14.63
2022-09-02T19:37:29.196Z,15.43
2022-09-02T19:40:01.807Z,20.80
2022-09-02T19:42:31.921Z,12.10
2022-09-02T19:45:00.037Z,11.95
2022-09-02T19:50:16.997Z,11.45
2022-09-02T19:52:45.607Z,10.23
2022-09-02T19:55:14.708Z,11.60
2022-09-02T19:57:42.814Z,10.82
2022-09-02T20:00:11.335Z,11.20
2022-09-02T20:02:40.197Z,10.70
2022-09-02T20:05:08.235Z,12.57
2022-09-02T20:07:37.354Z,11.70
2022-09-02T20:10:05.461Z,9.75
2022-09-02T20:12:33.640Z,9.88
2022-09-02T20:15:02.760Z,15.80
2022-09-02T20:17:30.837Z,11.35
2022-09-02T20:20:01.034Z,11.95
2022-09-02T20:22:29.065Z,10.90
2022-09-02T20:24:58.421Z,9.50
2022-09-02T20:27:39.895Z,9.68
2022-09-02T20:30:08.987Z,12.13
2022-09-02T20:32:43.171Z,12.98
2022-09-02T20:35:17.893Z,10.43
2022-09-02T20:37:51.733Z,10.57
2022-09-02T20:40:45.828Z,8.45
2022-09-02T20:43:36.148Z,9.70
2022-09-02T20:46:08.850Z,10.07
2022-09-02T20:48:45.635Z,10.48
2022-09-02T20:51:16.714Z,10.98
2022-09-02T20:53:58.872Z,7.97
2022-09-02T20:56:33.641Z,9.15
2022-09-02T20:59:02.660Z,9.43
2022-09-02T21:01:31.704Z,8.63
2022-09-02T21:04:04.534Z,11.80
2022-09-02T21:06:34.712Z,8.32
2022-09-02T21:09:05.836Z,7.35
2022-09-02T21:11:38.843Z,9.95
2022-09-02T21:14:08.248Z,10.52
2022-09-02T21:16:37.493Z,11.10
2022-09-02T21:19:08.895Z,8.73
2022-09-02T21:21:39.163Z,8.27
2022-09-02T21:24:08.331Z,7.85
2022-09-02T21:26:40.167Z,7.13
2022-09-02T21:29:12.455Z,8.02
2022-09-02T21:31:42.190Z,9.18
2022-09-02T21:34:16.479Z,7.53
2022-09-02T21:36:44.231Z,8.82
2022-09-02T21:39:14.978Z,7.65
2022-09-02T21:41:44.974Z,10.13
2022-09-02T21:44:15.394Z,8.38
2022-09-02T21:46:50.180Z,9.95
2022-09-02T21:49:25.291Z,15.40
2022-09-02T21:51:54.814Z,11.85
2022-09-02T21:54:39.797Z,14.20
2022-09-02T21:57:19.894Z,17.20
2022-09-02T21:59:57.740Z,17.33
2022-09-02T22:02:34.223Z,19.52
2022-09-02T22:05:04.344Z,22.90
2022-09-02T22:07:34.498Z,22.05
2022-09-02T22:10:11.073Z,24.15
2022-09-02T22:12:41.068Z,24.23
2022-09-02T22:15:11.995Z,27.27
2022-09-02T22:17:45.700Z,27.88
2022-09-02T22:20:15.596Z,29.20
2022-09-02T22:22:47.064Z,31.63
2022-09-02T22:25:17.727Z,34.17
2022-09-02T22:27:50.924Z,34.58
2022-09-02T22:30:18.894Z,36.63
2022-09-02T22:32:48.454Z,38.58
2022-09-02T22:35:21.982Z,40.95
2022-09-02T22:37:54.353Z,42.95
2022-09-02T22:40:23.281Z,46.78
2022-09-02T22:42:53.614Z,48.25
2022-09-02T22:45:41.017Z,52.35
2022-09-02T22:48:28.952Z,53.60
2022-09-02T22:51:19.173Z,57.70
2022-09-02T22:53:47.974Z,62.08
2022-09-02T22:56:16.005Z,67.20
2022-09-02T22:59:09.119Z,71.82
2022-09-02T23:01:43.931Z,77.75
2022-09-02T23:04:17.902Z,83.28
2022-09-02T23:06:45.688Z,82.93
2022-09-02T23:09:14.754Z,90.43
2022-09-02T23:11:47.449Z,99.32
2022-09-02T23:14:26.562Z,89.47
2022-09-02T23:17:20.394Z,102.97
2022-09-02T23:19:56.562Z,109.22
2022-09-02T23:22:34.338Z,105.80
2022-09-02T23:25:15.463Z,114.70
2022-09-02T23:27:45.164Z,111.47
2022-09-02T23:30:15.255Z,119.95
2022-09-02T23:32:55.295Z,118.70
2022-09-02T23:35:24.055Z,118.90
2022-09-02T23:38:02.742Z,118.90
2022-09-02T23:40:32.999Z,121.90
2022-09-02T23:43:01.378Z,124.13
2022-09-02T23:45:31.989Z,120.85
2022-09-02T23:48:18.267Z,123.22
2022-09-02T23:50:51.705Z,123.13
2022-09-02T23:53:22.171Z,121.70
2022-09-02T23:55:53.084Z,123.85
2022-09-02T23:58:28.489Z,121.72
